Warning: Javascript must be enabled to use all the features on this page!


Page Loading - Please Wait...

Click to hideNews Bulletins

Peak Streamflow for the Nation

USGS 03470000 LITTLE PIGEON RIVER AT SEVIERVILLE, TN

Sevier County, Tennessee
Hydrologic Unit Code 06010107
Latitude  35°52'42", Longitude  83°34'40" NAD27
Drainage area 353.00  square miles
Gage datum 878.99 feet above NAVD88
Output formats
Table
Graph
Tab-separated file
peakfq (watstore) format
Reselect output format
Water
Year
Date Gage
Height
(feet)
Stream-
flow
(cfs)
1867 1867-03-07 16.50 43,0007
1875 1875-02-25 18.00 55,0007
1896 1896-04-01 16.80 46,0007
1913 1913-03-14 14.10 24,0007
1917 1917-03-05 14.50 27,0007
1920 1920-04-02 16.00 37,000
1921 1921-02-10 12.00 15,700
1922 1922-01-21 9.32 8,820
1923 1922-12-15 12.50 18,000
1924 1924-03-05 7.70 6,950
1925 1924-12-08 11.60 13,900
1926 1926-04-13 7.25 6,360
1927 1927-02-23 10.44 10,200
1928 1928-06-29 15.40 32,000
1929 1929-03-23 13.45 22,200
1930 1930-03-19 6.32 5,310
1931 1931-04-04 9.50 9,060
1932 1932-01-30 11.00 11,600
1933 1933-02-15 12.54 18,000
1934 1934-03-30 10.50 10,400
1935 1935-03-12 11.06 11,900
1936 1936-03-26 13.41 22,200
1937 1937-02-09 9.25 8,760
1938 1938-08-05 12.69 18,900
1939 1939-02-15 9.45 9,020
1940 1940-08-14 9.17 8,760
1941 1941-07-07 5.41 3,910
1942 1942-03-09 8.26 7,590
1943 1942-12-29 12.82 19,400
1944 1944-02-18 10.08 9,950
1945 1945-02-17 10.57 10,800
1946 1946-01-08 12.20 16,600
1947 1947-01-20 13.67 23,500
1948 1948-02-12 11.49 13,400
1949 1948-11-28 10.69 10,900
1950 1949-10-31 12.58 17,300
1951 1951-03-29 13.26 20,400
1952 1952-03-11 10.43 10,100
1953 1953-02-21 11.70 13,300
1954 1954-01-21 11.80 14,600
1955 1955-02-23 9.80 9,290
1956 1956-04-16 13.25 20,400
1957 1957-02-01 14.71 28,300
1958 1957-11-18 10.46 9,660
1959 1959-01-22 12.65 19,000
1960 1959-11-28 12.43 18,000
1961 1961-03-08 13.20 21,500
1962 1961-12-18 14.53 27,500
1963 1963-03-12 15.74 36,900
1964 1964-04-07 13.80 25,800
1965 1965-03-26 16.09 41,000
1966 1966-02-13 15.01 33,500
1967 1967-06-04 11.30 15,400
1968 1967-12-22 5.99 8,590
1969 1969-02-02 8.33 14,600
1970 1969-12-31 8.95 16,400
1971 1971-07-19 9.74 19,100
1972 1972-04-12 5.58 7,540
1973 1973-03-16 13.88 38,200
1974 1974-03-21 7.84 12,600
1975 1975-03-14 9.80 19,300
1976 1976-05-15 6.31 8,290
1977 1977-04-05 11.49 24,900
1978 1978-01-26 8.40 14,400
1979 1979-03-04 10.77 23,200
1980 1980-03-21 8.97 16,300
1981 1981-02-11 5.45 6,350
1982 1982-01-04 8.59 15,000
2013 2013-01-30 11.22 23,000
2014 2014-07-28 9.94 16,900
2016 2016-02-03 8.51 11,200
2017 2017-04-24 7.73 9,270
2018 2018-03-01 8.98 12,900
2019 2019-02-23 13.30 28,200
2020 2020-02-06 14.13 32,000
?
  Peak Streamflow Qualification Codes.